createdAt,value
2018-11-27T00:01:20.278Z,23.70
2018-11-27T00:06:13.538Z,23.90
2018-11-27T00:11:06.758Z,24.35
2018-11-27T00:16:00.010Z,24.25
2018-11-27T00:20:53.321Z,22.98
2018-11-27T00:25:46.609Z,22.48
2018-11-27T00:30:39.870Z,23.65
2018-11-27T00:35:33.171Z,23.92
2018-11-27T00:40:26.480Z,23.05
2018-11-27T00:45:20.675Z,22.82
2018-11-27T00:50:17.334Z,23.02
2018-11-27T00:55:13.149Z,21.55
2018-11-27T01:00:11.325Z,23.02
2018-11-27T01:05:06.021Z,23.18
2018-11-27T01:09:59.289Z,22.17
2018-11-27T01:14:52.600Z,21.52
2018-11-27T01:19:45.875Z,23.83
2018-11-27T01:24:39.135Z,23.02
2018-11-27T01:29:32.403Z,22.48
2018-11-27T01:34:25.681Z,22.30
2018-11-27T01:39:18.926Z,22.40
2018-11-27T01:44:12.223Z,22.85
2018-11-27T01:49:06.603Z,21.75
2018-11-27T01:53:59.847Z,18.92
2018-11-27T01:58:53.085Z,19.65
2018-11-27T02:03:46.375Z,17.30
2018-11-27T02:08:39.637Z,17.02
2018-11-27T02:13:32.925Z,18.17
2018-11-27T02:18:26.225Z,16.40
2018-11-27T02:23:19.479Z,15.88
2018-11-27T02:28:12.774Z,15.63
2018-11-27T02:33:06.222Z,15.25
2018-11-27T02:37:59.518Z,14.75
2018-11-27T02:42:52.768Z,15.23
2018-11-27T02:47:47.058Z,15.43
2018-11-27T02:52:40.362Z,15.28
2018-11-27T02:57:33.693Z,15.25
2018-11-27T03:02:26.955Z,14.10
2018-11-27T03:07:20.912Z,14.18
2018-11-27T03:12:14.187Z,14.00
2018-11-27T03:17:07.509Z,15.30
2018-11-27T03:22:00.757Z,13.38
2018-11-27T03:26:54.023Z,14.93
2018-11-27T03:31:47.297Z,14.07
2018-11-27T03:36:41.387Z,13.48
2018-11-27T03:41:35.189Z,13.22
2018-11-27T03:46:28.446Z,13.45
2018-11-27T03:51:21.725Z,12.35
2018-11-27T03:56:15.023Z,12.58
2018-11-27T04:01:08.317Z,12.65
2018-11-27T04:06:01.610Z,12.50
2018-11-27T04:10:54.863Z,11.75
2018-11-27T04:15:48.175Z,11.83
2018-11-27T04:20:41.429Z,12.40
2018-11-27T04:25:34.745Z,12.05
2018-11-27T04:30:28.041Z,12.20
2018-11-27T04:35:22.089Z,12.33
2018-11-27T04:40:19.843Z,11.20
2018-11-27T04:45:17.683Z,12.20
2018-11-27T04:50:13.623Z,12.80
2018-11-27T04:55:09.486Z,12.43
2018-11-27T05:00:02.798Z,13.28
2018-11-27T05:04:56.103Z,11.93
2018-11-27T05:09:49.395Z,12.60
2018-11-27T05:14:42.672Z,11.73
2018-11-27T05:19:35.954Z,12.30
2018-11-27T05:24:29.233Z,11.83
2018-11-27T05:29:22.503Z,12.15
2018-11-27T05:34:15.751Z,11.73
2018-11-27T05:39:09.520Z,11.35
2018-11-27T05:44:02.958Z,12.83
2018-11-27T05:48:56.246Z,11.75
2018-11-27T05:53:49.499Z,11.33
2018-11-27T05:58:42.751Z,11.48
2018-11-27T06:03:36.039Z,11.33
2018-11-27T06:08:29.850Z,12.40
2018-11-27T06:13:23.122Z,11.75
2018-11-27T06:18:16.411Z,11.68
2018-11-27T06:23:09.694Z,11.75
2018-11-27T06:28:05.544Z,11.88
2018-11-27T06:32:58.868Z,11.38
2018-11-27T06:37:52.136Z,11.30
2018-11-27T06:42:45.419Z,11.57
2018-11-27T06:47:38.770Z,12.15
2018-11-27T06:52:32.061Z,12.15
2018-11-27T06:57:25.361Z,11.00
2018-11-27T07:02:18.642Z,11.40
2018-11-27T07:07:11.882Z,13.55
2018-11-27T07:12:05.494Z,12.88
2018-11-27T07:16:58.724Z,12.07
2018-11-27T07:21:52.000Z,11.57
2018-11-27T07:26:45.288Z,12.98
2018-11-27T07:31:39.193Z,11.22
2018-11-27T07:36:33.177Z,11.68
2018-11-27T07:41:26.430Z,12.40
2018-11-27T07:46:19.682Z,11.83
2018-11-27T07:51:12.981Z,11.78
2018-11-27T07:56:06.487Z,11.33
2018-11-27T08:01:00.593Z,11.15
2018-11-27T08:05:53.863Z,10.50
2018-11-27T08:10:48.446Z,11.12
2018-11-27T08:15:41.841Z,11.33
2018-11-27T08:20:35.497Z,11.53
2018-11-27T08:25:29.359Z,11.20
2018-11-27T08:30:23.785Z,11.63
2018-11-27T08:35:19.800Z,12.35
2018-11-27T08:40:14.609Z,10.48
2018-11-27T08:45:11.698Z,11.85
2018-11-27T08:50:09.292Z,11.08
2018-11-27T08:55:02.707Z,11.90
2018-11-27T08:59:56.050Z,10.25
2018-11-27T09:04:49.297Z,11.40
2018-11-27T09:09:42.561Z,10.53
2018-11-27T09:14:35.823Z,10.58
2018-11-27T09:19:29.108Z,10.85
2018-11-27T09:24:22.448Z,10.35
2018-11-27T09:29:15.723Z,10.08
2018-11-27T09:34:09.025Z,11.22
2018-11-27T09:39:02.327Z,9.58
2018-11-27T09:43:55.687Z,11.12
2018-11-27T09:48:49.070Z,11.03
2018-11-27T09:53:42.375Z,10.58
2018-11-27T09:58:35.688Z,10.10
2018-11-27T10:03:28.951Z,10.72
2018-11-27T10:08:22.197Z,11.40
2018-11-27T10:13:15.482Z,12.18
2018-11-27T10:18:08.758Z,11.00
2018-11-27T10:23:02.009Z,12.10
2018-11-27T10:27:55.284Z,12.03
2018-11-27T10:34:13.360Z,11.63
2018-11-27T10:39:08.367Z,11.50
2018-11-27T10:44:01.610Z,11.00
2018-11-27T10:48:54.929Z,11.15
2018-11-27T10:53:48.199Z,11.17
2018-11-27T10:58:41.568Z,11.50
2018-11-27T11:03:34.869Z,10.28
2018-11-27T11:08:28.143Z,10.82
2018-11-27T11:13:21.482Z,10.68
2018-11-27T11:18:14.824Z,10.85
2018-11-27T11:23:08.106Z,9.93
2018-11-27T11:28:01.350Z,10.88
2018-11-27T11:32:54.691Z,9.43
2018-11-27T11:37:48.835Z,10.25
2018-11-27T11:42:42.160Z,10.25
2018-11-27T11:47:35.407Z,9.48
2018-11-27T11:52:28.691Z,10.18
2018-11-27T11:57:21.976Z,9.33
2018-11-27T12:02:15.270Z,9.43
2018-11-27T12:07:08.575Z,9.33
2018-11-27T12:12:02.980Z,9.00
2018-11-27T12:16:56.268Z,9.55
2018-11-27T12:21:49.622Z,8.53
2018-11-27T12:26:42.872Z,9.20
2018-11-27T12:31:36.195Z,8.15
2018-11-27T12:36:29.496Z,9.55
2018-11-27T12:41:22.780Z,8.90
2018-11-27T12:46:16.117Z,8.00
2018-11-27T12:51:09.847Z,8.18
2018-11-27T12:56:02.843Z,9.20
2018-11-27T13:00:56.135Z,9.20
2018-11-27T13:05:49.485Z,9.13
2018-11-27T13:10:42.756Z,8.98
2018-11-27T13:15:38.002Z,9.93
2018-11-27T13:20:31.312Z,8.05
2018-11-27T13:25:25.185Z,8.95
2018-11-27T13:30:55.871Z,9.35
2018-11-27T13:35:49.233Z,8.80
2018-11-27T13:40:42.546Z,9.10
2018-11-27T13:45:36.833Z,9.90
2018-11-27T13:50:30.158Z,8.70
2018-11-27T13:55:23.519Z,9.68
2018-11-27T14:00:18.293Z,10.45
2018-11-27T14:05:13.997Z,9.20
2018-11-27T14:10:09.805Z,9.60
2018-11-27T14:15:03.191Z,8.93
2018-11-27T14:19:56.470Z,9.50
2018-11-27T14:24:49.713Z,8.60
2018-11-27T14:29:43.110Z,9.98
2018-11-27T14:34:36.432Z,10.43
2018-11-27T14:39:29.737Z,9.58
2018-11-27T14:44:23.005Z,9.78
2018-11-27T14:49:16.283Z,8.85
2018-11-27T14:54:09.574Z,9.28
2018-11-27T14:59:04.094Z,9.23
2018-11-27T15:03:57.417Z,9.83
2018-11-27T15:08:50.739Z,9.60
2018-11-27T15:13:43.998Z,10.00
2018-11-27T15:18:37.297Z,9.00
2018-11-27T15:23:30.576Z,9.48
2018-11-27T15:28:23.914Z,9.55
2018-11-27T15:33:18.829Z,9.28
2018-11-27T15:38:11.336Z,9.15
2018-11-27T15:43:04.946Z,9.90
2018-11-27T15:47:58.294Z,9.68
2018-11-27T15:52:51.576Z,8.83
2018-11-27T15:57:45.634Z,9.25
2018-11-27T16:02:38.945Z,9.00
2018-11-27T16:07:32.229Z,8.98
2018-11-27T16:12:25.576Z,9.93
2018-11-27T16:17:18.905Z,9.08
2018-11-27T16:22:12.231Z,9.45
2018-11-27T16:27:05.580Z,9.28
2018-11-27T16:31:58.806Z,9.63
2018-11-27T16:36:52.106Z,8.53
2018-11-27T16:41:45.466Z,8.78
2018-11-27T16:46:38.803Z,8.70
2018-11-27T16:51:32.041Z,7.80
2018-11-27T16:56:25.854Z,8.20
2018-11-27T17:01:19.666Z,8.65
2018-11-27T17:06:12.973Z,9.15
2018-11-27T17:11:06.452Z,9.13
2018-11-27T17:15:59.751Z,9.28
2018-11-27T17:20:53.063Z,9.15
2018-11-27T17:25:46.415Z,9.73
2018-11-27T17:30:44.123Z,9.58
2018-11-27T17:35:37.500Z,10.18
2018-11-27T17:40:30.802Z,10.85
2018-11-27T17:45:24.131Z,10.58
2018-11-27T17:50:17.873Z,10.68
2018-11-27T17:55:12.438Z,10.20
2018-11-27T18:00:29.795Z,9.83
2018-11-27T18:05:23.125Z,10.90
2018-11-27T18:10:16.405Z,11.73
2018-11-27T18:15:14.339Z,11.97
2018-11-27T18:20:10.472Z,11.55
2018-11-27T18:25:03.853Z,11.95
2018-11-27T18:29:57.164Z,13.43
2018-11-27T18:34:50.489Z,12.10
2018-11-27T18:39:43.784Z,12.13
2018-11-27T18:44:37.061Z,13.00
2018-11-27T18:49:30.351Z,12.63
2018-11-27T18:54:23.702Z,12.20
2018-11-27T18:59:17.023Z,13.43
2018-11-27T19:04:10.319Z,12.90
2018-11-27T19:09:06.146Z,12.80
2018-11-27T19:13:59.463Z,12.98
2018-11-27T19:18:52.891Z,13.85
2018-11-27T19:23:46.168Z,12.88
2018-11-27T19:28:39.448Z,12.45
2018-11-27T19:33:32.721Z,12.95
2018-11-27T19:38:25.996Z,12.68
2018-11-27T19:43:19.278Z,13.60
2018-11-27T19:48:13.970Z,13.50
2018-11-27T19:53:12.261Z,13.30
2018-11-27T19:58:05.395Z,14.43
2018-11-27T20:02:58.687Z,12.95
2018-11-27T20:07:52.125Z,13.88
2018-11-27T20:12:46.109Z,13.70
2018-11-27T20:17:39.389Z,13.78
2018-11-27T20:22:32.685Z,14.00
2018-11-27T20:27:25.923Z,14.55
2018-11-27T20:32:19.223Z,13.98
2018-11-27T20:37:12.501Z,14.27
2018-11-27T20:42:05.941Z,13.78
2018-11-27T20:46:59.247Z,14.75
2018-11-27T20:51:52.535Z,15.30
2018-11-27T20:56:45.809Z,14.35
2018-11-27T21:01:39.160Z,14.78
2018-11-27T21:06:32.663Z,15.78
2018-11-27T21:11:26.049Z,14.07
2018-11-27T21:16:19.437Z,15.23
2018-11-27T21:21:12.708Z,15.80
2018-11-27T21:26:06.116Z,13.83
2018-11-27T21:30:59.379Z,15.08
2018-11-27T21:35:52.650Z,14.18
2018-11-27T21:40:45.940Z,14.53
2018-11-27T21:45:39.245Z,15.65
2018-11-27T21:50:38.275Z,13.98
2018-11-27T21:55:31.555Z,14.68
2018-11-27T22:00:25.667Z,15.50
2018-11-27T22:05:18.961Z,14.55
2018-11-27T22:10:19.987Z,15.35
2018-11-27T22:15:20.417Z,13.90
2018-11-27T22:20:13.739Z,14.65
2018-11-27T22:25:09.089Z,15.18
2018-11-27T22:30:02.416Z,15.95
2018-11-27T22:34:55.707Z,15.05
2018-11-27T22:39:49.947Z,14.40
2018-11-27T22:44:43.361Z,15.60
2018-11-27T22:49:36.633Z,15.43
2018-11-27T22:54:30.005Z,14.23
2018-11-27T22:59:23.637Z,15.00
2018-11-27T23:04:16.998Z,14.50
2018-11-27T23:09:12.516Z,14.83
2018-11-27T23:14:06.011Z,15.78
2018-11-27T23:18:59.321Z,15.75
2018-11-27T23:23:52.654Z,14.95
2018-11-27T23:28:45.977Z,16.10
2018-11-27T23:33:39.327Z,14.55
2018-11-27T23:38:33.412Z,15.48
2018-11-27T23:43:26.769Z,14.90
2018-11-27T23:48:20.032Z,16.15
2018-11-27T23:53:13.350Z,14.60
2018-11-27T23:58:07.209Z,15.13
